createdAt,value
2024-01-27T00:00:18.087Z,2.34
2024-01-27T00:02:45.092Z,2.33
2024-01-27T00:05:11.917Z,2.33
2024-01-27T00:07:38.740Z,2.34
2024-01-27T00:10:06.431Z,2.34
2024-01-27T00:12:33.428Z,2.32
2024-01-27T00:15:00.236Z,2.30
2024-01-27T00:17:28.347Z,2.28
2024-01-27T00:19:55.267Z,2.28
2024-01-27T00:22:22.112Z,2.29
2024-01-27T00:24:49.156Z,2.28
2024-01-27T00:27:16.023Z,2.28
2024-01-27T00:29:42.777Z,2.28
2024-01-27T00:32:09.407Z,2.28
2024-01-27T00:34:35.975Z,2.29
2024-01-27T00:37:02.669Z,2.30
2024-01-27T00:39:29.482Z,2.30
2024-01-27T00:41:58.818Z,2.29
2024-01-27T00:44:25.715Z,2.30
2024-01-27T00:46:52.304Z,2.30
2024-01-27T00:49:19.045Z,2.30
2024-01-27T00:51:45.735Z,2.32
2024-01-27T00:54:12.285Z,2.34
2024-01-27T00:56:39.218Z,2.33
2024-01-27T00:59:05.983Z,2.32
2024-01-27T01:01:32.777Z,2.31
2024-01-27T01:03:59.635Z,2.30
2024-01-27T01:06:26.522Z,2.30
2024-01-27T01:08:53.541Z,2.30
2024-01-27T01:11:20.132Z,2.29
2024-01-27T01:13:46.889Z,2.38
2024-01-27T01:16:14.490Z,2.31
2024-01-27T01:18:41.724Z,2.30
2024-01-27T01:21:08.556Z,2.31
2024-01-27T01:23:35.251Z,2.32
2024-01-27T01:26:02.000Z,2.32
2024-01-27T01:28:29.118Z,2.32
2024-01-27T01:30:56.726Z,2.32
2024-01-27T01:33:23.514Z,2.32
2024-01-27T01:35:50.481Z,2.33
2024-01-27T01:38:17.114Z,2.33
2024-01-27T01:40:43.619Z,2.33
2024-01-27T01:43:13.221Z,2.33
2024-01-27T01:45:39.835Z,2.33
2024-01-27T01:48:07.768Z,2.33
2024-01-27T01:50:34.482Z,2.32
2024-01-27T01:53:01.379Z,2.32
2024-01-27T01:55:28.060Z,2.31
2024-01-27T01:57:55.079Z,2.32
2024-01-27T02:00:21.896Z,2.33
2024-01-27T02:02:48.698Z,2.31
2024-01-27T02:05:15.382Z,2.27
2024-01-27T02:07:42.186Z,2.27
2024-01-27T02:10:18.552Z,2.28
2024-01-27T02:12:45.748Z,2.28
2024-01-27T02:15:15.948Z,2.29
2024-01-27T02:17:43.003Z,2.32
2024-01-27T02:20:10.155Z,2.33
2024-01-27T02:22:37.206Z,2.33
2024-01-27T02:25:04.235Z,2.30
2024-01-27T02:27:31.189Z,2.29
2024-01-27T02:29:58.043Z,2.29
2024-01-27T02:32:24.801Z,2.29
2024-01-27T02:34:51.620Z,2.29
2024-01-27T02:37:18.973Z,2.30
2024-01-27T02:39:45.900Z,2.30
2024-01-27T02:42:12.543Z,2.31
2024-01-27T02:44:39.357Z,2.32
2024-01-27T02:47:06.117Z,2.30
2024-01-27T02:49:32.937Z,2.29
2024-01-27T02:51:59.569Z,2.30
2024-01-27T02:54:28.007Z,2.31
2024-01-27T02:56:54.652Z,2.29
2024-01-27T02:59:21.470Z,2.29
2024-01-27T03:01:48.086Z,2.30
2024-01-27T03:04:14.983Z,2.30
2024-01-27T03:06:41.656Z,2.30
2024-01-27T03:09:08.305Z,2.29
2024-01-27T03:11:34.977Z,2.28
2024-01-27T03:14:01.890Z,2.28
2024-01-27T03:16:28.756Z,2.30
2024-01-27T03:18:55.472Z,2.31
2024-01-27T03:21:22.387Z,2.31
2024-01-27T03:23:49.222Z,2.30
2024-01-27T03:26:16.125Z,2.29
2024-01-27T03:28:42.752Z,2.27
2024-01-27T03:31:09.410Z,2.26
2024-01-27T03:33:36.444Z,2.27
2024-01-27T03:36:03.403Z,2.27
2024-01-27T03:38:30.509Z,2.27
2024-01-27T03:40:57.130Z,2.27
2024-01-27T03:43:23.954Z,2.28
2024-01-27T03:47:53.437Z,2.29
2024-01-27T03:50:21.534Z,2.26
2024-01-27T03:52:49.207Z,2.27
2024-01-27T03:55:16.717Z,2.27
2024-01-27T03:57:44.217Z,2.28
2024-01-27T04:00:15.106Z,2.29
2024-01-27T04:02:42.572Z,2.31
2024-01-27T04:05:10.147Z,2.33
2024-01-27T04:07:37.578Z,2.34
2024-01-27T04:10:05.632Z,2.35
2024-01-27T04:12:33.466Z,2.33
2024-01-27T04:15:01.447Z,2.31
2024-01-27T04:17:28.983Z,2.32
2024-01-27T04:19:56.648Z,2.32
2024-01-27T04:22:24.130Z,2.29
2024-01-27T04:24:51.657Z,2.28
2024-01-27T04:27:19.155Z,2.30
2024-01-27T04:29:47.016Z,2.33
2024-01-27T04:32:14.525Z,2.36
2024-01-27T04:34:42.186Z,2.36
2024-01-27T04:37:09.623Z,2.38
2024-01-27T04:39:37.186Z,2.39
2024-01-27T04:42:04.989Z,2.41
2024-01-27T04:44:32.625Z,2.40
2024-01-27T04:47:00.159Z,2.39
2024-01-27T04:49:28.521Z,2.40
2024-01-27T04:51:56.073Z,2.41
2024-01-27T04:54:23.624Z,2.41
2024-01-27T04:56:51.240Z,2.43
2024-01-27T04:59:18.716Z,2.44
2024-01-27T05:01:47.041Z,2.45
2024-01-27T05:04:14.818Z,2.45
2024-01-27T05:06:46.876Z,2.46
2024-01-27T05:09:14.526Z,2.43
2024-01-27T05:11:44.055Z,2.43
2024-01-27T05:14:11.604Z,2.44
2024-01-27T05:16:39.102Z,2.45
2024-01-27T05:19:06.687Z,2.46
2024-01-27T05:21:34.275Z,2.46
2024-01-27T05:24:01.794Z,2.46
2024-01-27T05:31:03.544Z,2.46
2024-01-27T05:33:31.273Z,2.46
2024-01-27T05:35:58.891Z,2.46
2024-01-27T05:47:34.529Z,2.39
2024-01-27T05:54:37.860Z,2.37
2024-01-27T05:57:05.831Z,2.36
2024-01-27T05:59:33.258Z,2.37
2024-01-27T06:02:00.749Z,2.38
2024-01-27T06:04:28.357Z,2.39
2024-01-27T06:06:56.019Z,2.41
2024-01-27T06:09:23.642Z,2.43
2024-01-27T06:11:51.240Z,2.44
2024-01-27T06:14:18.675Z,2.44
2024-01-27T06:16:46.257Z,2.43
2024-01-27T06:19:13.784Z,2.42
2024-01-27T06:21:41.407Z,2.40
2024-01-27T06:24:09.025Z,2.40
2024-01-27T06:26:36.579Z,2.41
2024-01-27T06:29:04.088Z,2.44
2024-01-27T06:31:31.620Z,2.46
2024-01-27T06:33:59.146Z,2.45
2024-01-27T06:36:28.604Z,2.45
2024-01-27T06:38:56.303Z,2.45
2024-01-27T06:41:23.972Z,2.46
2024-01-27T06:43:51.482Z,2.49
2024-01-27T06:46:18.976Z,2.52
2024-01-27T06:48:46.545Z,2.54
2024-01-27T06:51:14.301Z,2.52
2024-01-27T06:53:41.776Z,2.52
2024-01-27T06:56:09.862Z,2.51
2024-01-27T06:58:37.820Z,2.52
2024-01-27T07:01:05.450Z,2.54
2024-01-27T07:03:33.079Z,2.55
2024-01-27T07:06:03.625Z,2.53
2024-01-27T07:08:31.232Z,2.52
2024-01-27T07:10:58.745Z,2.53
2024-01-27T07:18:21.055Z,2.56
2024-01-27T07:20:48.951Z,2.57
2024-01-27T07:28:06.756Z,2.58
2024-01-27T07:30:34.787Z,2.60
2024-01-27T07:33:02.471Z,2.64
2024-01-27T07:35:30.509Z,2.65
2024-01-27T07:37:58.048Z,2.67
2024-01-27T07:40:25.458Z,2.70
2024-01-27T07:42:53.251Z,2.72
2024-01-27T07:45:20.811Z,2.76
2024-01-27T07:47:48.343Z,2.79
2024-01-27T07:50:16.117Z,2.81
2024-01-27T07:52:43.681Z,2.83
2024-01-27T07:55:11.643Z,2.85
2024-01-27T07:57:39.201Z,2.88
2024-01-27T08:00:07.782Z,2.91
2024-01-27T08:02:35.319Z,2.94
2024-01-27T08:05:04.834Z,2.96
2024-01-27T08:07:33.285Z,2.95
2024-01-27T08:10:01.263Z,2.92
2024-01-27T08:12:29.019Z,2.93
2024-01-27T08:14:56.687Z,2.95
2024-01-27T08:17:24.235Z,2.98
2024-01-27T08:19:52.612Z,3.02
2024-01-27T08:26:54.785Z,3.13
2024-01-27T08:29:22.510Z,3.19
2024-01-27T08:31:50.332Z,3.22
2024-01-27T08:34:18.596Z,3.26
2024-01-27T08:36:46.226Z,3.32
2024-01-27T08:39:14.554Z,3.36
2024-01-27T08:41:42.538Z,3.39
2024-01-27T08:44:10.164Z,3.40
2024-01-27T08:46:37.779Z,3.41
2024-01-27T08:49:08.031Z,3.61
2024-01-27T08:51:35.947Z,3.45
2024-01-27T08:54:03.582Z,3.42
2024-01-27T08:56:31.206Z,3.40
2024-01-27T08:58:58.900Z,3.40
2024-01-27T09:01:26.591Z,3.43
2024-01-27T09:03:54.955Z,3.46
2024-01-27T09:06:23.264Z,3.49
2024-01-27T09:08:54.287Z,3.52
2024-01-27T09:11:28.298Z,3.54
2024-01-27T09:13:57.280Z,3.53
2024-01-27T09:16:25.453Z,3.52
2024-01-27T09:18:54.097Z,3.53
2024-01-27T09:21:23.860Z,3.56
2024-01-27T09:23:51.525Z,3.59
2024-01-27T09:26:19.721Z,3.59
2024-01-27T09:28:55.923Z,3.56
2024-01-27T09:31:24.529Z,3.57
2024-01-27T09:33:53.743Z,3.57
2024-01-27T09:36:22.327Z,3.57
2024-01-27T09:38:50.329Z,3.56
2024-01-27T09:41:19.848Z,3.56
2024-01-27T09:48:38.379Z,3.54
2024-01-27T09:51:11.913Z,3.52
2024-01-27T09:53:41.240Z,3.52
2024-01-27T09:56:08.985Z,3.56
2024-01-27T09:58:36.791Z,3.54
2024-01-27T10:01:04.621Z,3.53
2024-01-27T10:03:32.479Z,3.56
2024-01-27T10:06:04.321Z,3.62
2024-01-27T10:13:28.140Z,3.63
2024-01-27T10:16:03.761Z,3.62
2024-01-27T10:18:34.205Z,3.64
2024-01-27T10:21:17.750Z,3.62
2024-01-27T10:23:47.927Z,3.61
2024-01-27T10:26:18.121Z,3.63
2024-01-27T10:29:01.135Z,3.63
2024-01-27T10:31:31.906Z,3.61
2024-01-27T10:34:06.152Z,3.60
2024-01-27T10:41:06.888Z,3.56
2024-01-27T10:43:40.660Z,3.54
2024-01-27T10:46:12.279Z,3.56
2024-01-27T10:48:43.010Z,3.55
2024-01-27T10:51:14.002Z,3.56
2024-01-27T10:53:50.992Z,3.58
2024-01-27T10:56:24.892Z,3.59
2024-01-27T10:58:55.998Z,3.57
2024-01-27T11:01:27.978Z,3.57
2024-01-27T11:03:59.275Z,3.57
2024-01-27T11:13:44.089Z,3.60
2024-01-27T11:16:19.257Z,3.59
2024-01-27T11:18:47.128Z,3.58
2024-01-27T11:21:17.412Z,3.57
2024-01-27T11:23:46.303Z,3.57
2024-01-27T11:26:22.224Z,3.57
2024-01-27T11:28:50.779Z,3.57
2024-01-27T11:31:22.677Z,3.56
2024-01-27T11:33:54.254Z,3.54
2024-01-27T11:36:26.457Z,3.53
2024-01-27T11:38:54.701Z,3.51
2024-01-27T11:48:45.306Z,3.43
2024-01-27T11:51:13.471Z,3.40
2024-01-27T11:53:41.075Z,3.40
2024-01-27T11:56:08.907Z,3.39
2024-01-27T11:58:36.429Z,3.38
2024-01-27T12:01:04.368Z,3.38
2024-01-27T12:03:32.306Z,3.36
2024-01-27T12:06:00.222Z,3.33
2024-01-27T12:08:29.290Z,3.32
2024-01-27T12:10:57.067Z,3.30
2024-01-27T12:13:24.800Z,3.27
2024-01-27T12:15:52.273Z,3.26
2024-01-27T12:18:23.391Z,3.24
2024-01-27T12:20:59.004Z,3.21
2024-01-27T12:23:29.772Z,3.20
2024-01-27T12:26:00.180Z,3.16
2024-01-27T12:28:28.104Z,3.11
2024-01-27T12:30:55.942Z,3.11
2024-01-27T12:33:26.975Z,3.14
2024-01-27T12:35:56.187Z,3.18
2024-01-27T12:38:24.431Z,3.22
2024-01-27T12:40:51.994Z,3.26
2024-01-27T12:43:19.618Z,3.30
2024-01-27T12:45:47.406Z,3.33
2024-01-27T12:48:15.324Z,3.34
2024-01-27T12:50:43.204Z,3.36
2024-01-27T12:53:10.754Z,3.36
2024-01-27T12:55:38.859Z,3.36
2024-01-27T12:58:07.061Z,3.35
2024-01-27T13:00:35.422Z,3.33
2024-01-27T13:03:03.082Z,3.32
2024-01-27T13:05:31.134Z,3.31
2024-01-27T13:07:59.069Z,3.30
2024-01-27T13:10:26.712Z,3.29
2024-01-27T13:12:54.234Z,3.27
2024-01-27T13:15:23.666Z,3.22
2024-01-27T13:17:51.626Z,3.19
2024-01-27T13:20:20.884Z,3.14
2024-01-27T13:22:49.953Z,3.10
2024-01-27T13:25:17.590Z,3.06
2024-01-27T13:27:45.149Z,3.03
2024-01-27T13:30:13.440Z,3.01
2024-01-27T13:32:41.124Z,3.00
2024-01-27T13:35:09.669Z,2.99
2024-01-27T13:37:37.813Z,2.99
2024-01-27T13:40:05.972Z,2.98
2024-01-27T13:49:51.483Z,2.97
2024-01-27T13:52:19.115Z,2.96
2024-01-27T13:54:47.044Z,2.96
2024-01-27T13:57:19.946Z,2.96
2024-01-27T13:59:47.694Z,2.96
2024-01-27T14:02:15.301Z,2.95
2024-01-27T14:04:42.907Z,2.93
2024-01-27T14:07:11.087Z,2.91
2024-01-27T14:09:40.088Z,2.89
2024-01-27T14:12:09.172Z,2.87
2024-01-27T14:14:40.070Z,2.85
2024-01-27T14:17:10.831Z,2.81
2024-01-27T14:19:38.897Z,2.79
2024-01-27T14:22:07.634Z,2.80
2024-01-27T14:24:35.848Z,2.80
2024-01-27T14:27:06.310Z,2.80
2024-01-27T14:29:33.928Z,2.81
2024-01-27T14:32:01.624Z,2.81
2024-01-27T14:34:29.370Z,2.81
2024-01-27T14:36:59.129Z,2.81
2024-01-27T14:39:26.715Z,2.81
2024-01-27T14:41:54.455Z,2.82
2024-01-27T14:44:22.734Z,2.83
2024-01-27T14:46:50.309Z,2.85
2024-01-27T14:49:18.504Z,2.86
2024-01-27T14:51:46.354Z,2.87
2024-01-27T14:54:14.214Z,2.89
2024-01-27T14:56:42.076Z,2.91
2024-01-27T14:59:09.902Z,2.91
2024-01-27T15:01:37.938Z,2.90
2024-01-27T15:04:06.677Z,2.88
2024-01-27T15:06:35.042Z,2.85
2024-01-27T15:09:03.306Z,2.83
2024-01-27T15:11:31.263Z,2.81
2024-01-27T15:13:59.139Z,2.80
2024-01-27T15:16:27.885Z,2.81
2024-01-27T15:18:56.319Z,2.81
2024-01-27T15:21:26.475Z,2.79
2024-01-27T15:23:54.429Z,2.78
2024-01-27T15:26:25.743Z,2.78
2024-01-27T15:28:53.534Z,2.78
2024-01-27T15:31:24.604Z,2.79
2024-01-27T15:33:53.875Z,2.79
2024-01-27T15:36:22.351Z,2.79
2024-01-27T15:38:50.295Z,2.79
2024-01-27T15:41:21.900Z,2.78
2024-01-27T15:43:50.961Z,2.78
2024-01-27T15:46:18.557Z,2.77
2024-01-27T15:48:46.255Z,2.77
2024-01-27T15:51:14.029Z,2.77
2024-01-27T15:53:43.670Z,2.76
2024-01-27T15:56:12.313Z,2.77
2024-01-27T15:58:40.242Z,2.75
2024-01-27T16:01:07.990Z,2.74
2024-01-27T16:03:37.320Z,2.74
2024-01-27T16:06:07.069Z,2.73
2024-01-27T16:08:41.102Z,2.72
2024-01-27T16:11:08.780Z,2.70
2024-01-27T16:13:37.482Z,2.68
2024-01-27T16:16:08.108Z,2.66
2024-01-27T16:18:35.913Z,2.66
2024-01-27T16:21:03.869Z,2.67
2024-01-27T16:23:32.181Z,2.68
2024-01-27T16:26:00.144Z,2.68
2024-01-27T16:28:29.219Z,2.68
2024-01-27T16:30:56.997Z,2.68
2024-01-27T16:33:25.005Z,2.66
2024-01-27T16:35:52.594Z,2.66
2024-01-27T16:38:20.138Z,2.65
2024-01-27T16:40:49.438Z,2.66
2024-01-27T16:43:17.268Z,2.66
2024-01-27T16:45:45.005Z,2.65
2024-01-27T16:48:12.771Z,2.66
2024-01-27T16:50:40.945Z,2.68
2024-01-27T16:53:10.153Z,2.69
2024-01-27T16:55:39.203Z,2.72
2024-01-27T16:58:07.000Z,2.76
2024-01-27T17:00:35.892Z,2.78
2024-01-27T17:03:04.354Z,2.80
2024-01-27T17:05:32.063Z,2.82
2024-01-27T17:07:59.852Z,2.82
2024-01-27T17:10:27.780Z,2.84
2024-01-27T17:12:55.572Z,2.85
2024-01-27T17:15:23.356Z,2.85
2024-01-27T17:17:51.682Z,2.85
2024-01-27T17:20:19.405Z,2.86
2024-01-27T17:22:47.258Z,2.83
2024-01-27T17:25:15.782Z,2.82
2024-01-27T17:27:43.827Z,2.81
2024-01-27T17:30:12.760Z,2.82
2024-01-27T17:32:44.076Z,2.82
2024-01-27T17:35:11.979Z,2.83
2024-01-27T17:37:39.766Z,2.82
2024-01-27T17:40:08.552Z,2.81
2024-01-27T17:42:37.536Z,2.79
2024-01-27T17:45:06.775Z,2.78
2024-01-27T17:47:38.048Z,2.76
2024-01-27T17:50:07.197Z,2.73
2024-01-27T17:52:34.930Z,2.71
2024-01-27T17:55:02.546Z,2.70
2024-01-27T17:57:30.423Z,2.69
2024-01-27T17:59:57.998Z,2.68
2024-01-27T18:02:27.522Z,2.66
2024-01-27T18:04:55.731Z,2.63
2024-01-27T18:07:23.595Z,2.60
2024-01-27T18:09:54.080Z,2.58
2024-01-27T18:12:24.488Z,2.57
2024-01-27T18:14:52.297Z,2.55
2024-01-27T18:17:20.108Z,2.52
2024-01-27T18:19:49.708Z,2.51
2024-01-27T18:22:17.454Z,2.51
2024-01-27T18:24:45.636Z,2.50
2024-01-27T18:27:15.580Z,2.50
2024-01-27T18:29:44.084Z,2.48
2024-01-27T18:36:46.003Z,2.46
2024-01-27T18:43:57.361Z,2.45
2024-01-27T18:55:48.368Z,2.40
2024-01-27T18:58:16.381Z,2.40
2024-01-27T19:01:02.666Z,2.40
2024-01-27T19:03:30.594Z,2.40
2024-01-27T19:05:58.466Z,2.39
2024-01-27T19:08:27.114Z,2.40
2024-01-27T19:10:54.809Z,2.41
2024-01-27T19:13:22.606Z,2.42
2024-01-27T19:15:54.013Z,2.42
2024-01-27T19:18:25.386Z,2.43
2024-01-27T19:20:53.503Z,2.43
2024-01-27T19:23:24.128Z,2.42
2024-01-27T19:25:51.955Z,2.40
2024-01-27T19:28:21.268Z,2.39
2024-01-27T19:30:48.960Z,2.38
2024-01-27T19:33:18.954Z,2.38
2024-01-27T19:35:47.270Z,2.38
2024-01-27T19:38:17.279Z,2.38
2024-01-27T19:40:55.098Z,2.36
2024-01-27T19:43:30.624Z,2.36
2024-01-27T19:45:58.273Z,2.35
2024-01-27T19:48:26.880Z,2.35
2024-01-27T19:50:56.221Z,2.34
2024-01-27T19:53:24.040Z,2.32
2024-01-27T19:55:52.483Z,2.32
2024-01-27T20:03:11.544Z,2.29
2024-01-27T20:05:39.456Z,2.29
2024-01-27T20:08:09.800Z,2.29
2024-01-27T20:10:37.405Z,2.29
2024-01-27T20:17:43.993Z,2.29
2024-01-27T20:20:12.493Z,2.28
2024-01-27T20:22:43.730Z,2.28
2024-01-27T20:25:11.877Z,2.28
2024-01-27T20:27:39.966Z,2.26
2024-01-27T20:30:09.343Z,2.25
2024-01-27T20:32:37.347Z,2.24
2024-01-27T20:35:12.638Z,2.23
2024-01-27T20:37:41.356Z,2.24
2024-01-27T20:40:12.672Z,2.24
2024-01-27T20:42:41.275Z,2.24
2024-01-27T20:45:09.109Z,2.24
2024-01-27T20:47:37.084Z,2.22
2024-01-27T20:50:05.265Z,2.22
2024-01-27T20:52:33.939Z,2.22
2024-01-27T20:55:01.861Z,2.22
2024-01-27T20:57:29.602Z,2.23
2024-01-27T21:04:31.717Z,2.23
2024-01-27T21:07:02.261Z,2.22
2024-01-27T21:09:32.597Z,2.22
2024-01-27T21:12:02.261Z,2.23
2024-01-27T21:14:33.101Z,2.24
2024-01-27T21:17:04.047Z,2.25
2024-01-27T21:19:39.345Z,2.25
2024-01-27T21:22:11.147Z,2.26
2024-01-27T21:24:43.258Z,2.25
2024-01-27T21:27:13.782Z,2.25
2024-01-27T21:29:45.233Z,2.24
2024-01-27T21:32:16.230Z,2.24
2024-01-27T21:34:48.209Z,2.23
2024-01-27T21:37:20.152Z,2.23
2024-01-27T21:39:51.874Z,2.24
2024-01-27T21:42:22.951Z,2.24
2024-01-27T21:44:54.517Z,2.24
2024-01-27T21:47:25.104Z,2.22
2024-01-27T21:50:00.482Z,2.21
2024-01-27T21:52:31.218Z,2.20
2024-01-27T21:55:02.188Z,2.20
2024-01-27T21:57:33.242Z,2.20
2024-01-27T22:00:04.350Z,2.19
2024-01-27T22:02:42.146Z,2.22
2024-01-27T22:11:37.910Z,2.31
2024-01-27T22:14:05.412Z,2.27
2024-01-27T22:16:32.223Z,2.27
2024-01-27T22:18:59.257Z,2.25
2024-01-27T22:21:28.158Z,2.22
2024-01-27T22:23:54.768Z,2.19
2024-01-27T22:26:24.095Z,2.16
2024-01-27T22:28:52.210Z,2.14
2024-01-27T22:31:19.324Z,2.13
2024-01-27T22:33:46.206Z,2.13
2024-01-27T22:36:13.935Z,2.12
2024-01-27T22:38:42.291Z,2.12
2024-01-27T22:41:09.527Z,2.10
2024-01-27T22:43:38.169Z,2.10
2024-01-27T22:46:06.089Z,2.10
2024-01-27T22:48:33.309Z,2.10
2024-01-27T22:51:00.319Z,2.09
2024-01-27T22:53:27.103Z,2.08
2024-01-27T22:55:53.772Z,2.07
2024-01-27T22:58:20.752Z,2.05
2024-01-27T23:00:47.748Z,2.03
2024-01-27T23:03:14.810Z,2.02
2024-01-27T23:05:42.420Z,2.02
2024-01-27T23:08:09.345Z,2.03
2024-01-27T23:10:37.210Z,2.02
2024-01-27T23:13:04.268Z,1.99
2024-01-27T23:15:31.438Z,1.97
2024-01-27T23:17:58.472Z,1.98
2024-01-27T23:20:25.646Z,1.96
2024-01-27T23:22:52.772Z,1.94
2024-01-27T23:25:19.549Z,1.95
2024-01-27T23:27:46.311Z,1.94
2024-01-27T23:30:13.649Z,1.94
2024-01-27T23:32:40.716Z,1.94
2024-01-27T23:35:08.956Z,1.94
2024-01-27T23:37:36.369Z,1.91
2024-01-27T23:40:06.722Z,1.90
2024-01-27T23:42:34.019Z,1.90
2024-01-27T23:45:01.522Z,1.89
2024-01-27T23:47:28.533Z,1.89
2024-01-27T23:49:55.409Z,1.89
2024-01-27T23:52:25.573Z,1.90
2024-01-27T23:54:53.205Z,1.90
2024-01-27T23:57:20.246Z,1.90
2024-01-27T23:59:50.399Z,1.89
